createdAt,value
2022-08-23T00:01:45.012Z,99.90
2022-08-23T00:04:22.480Z,99.90
2022-08-23T00:06:58.382Z,99.90
2022-08-23T00:09:26.738Z,99.90
2022-08-23T00:12:07.542Z,99.90
2022-08-23T00:14:38.129Z,99.90
2022-08-23T00:17:06.667Z,99.90
2022-08-23T00:19:33.740Z,99.90
2022-08-23T00:22:00.781Z,99.90
2022-08-23T00:24:28.138Z,99.90
2022-08-23T00:27:01.432Z,99.90
2022-08-23T00:29:50.342Z,99.90
2022-08-23T00:32:24.190Z,99.90
2022-08-23T00:34:52.306Z,99.90
2022-08-23T00:37:21.017Z,99.90
2022-08-23T00:39:48.281Z,99.90
2022-08-23T00:42:54.420Z,99.90
2022-08-23T00:45:42.517Z,99.90
2022-08-23T00:48:09.784Z,99.90
2022-08-23T00:50:38.880Z,99.90
2022-08-23T00:53:23.783Z,99.90
2022-08-23T00:55:57.219Z,99.90
2022-08-23T00:58:27.632Z,99.90
2022-08-23T01:00:56.888Z,99.90
2022-08-23T01:03:26.787Z,99.90
2022-08-23T01:06:13.356Z,99.90
2022-08-23T01:08:48.256Z,99.90
2022-08-23T01:11:57.760Z,99.90
2022-08-23T01:14:33.805Z,99.90
2022-08-23T01:17:20.176Z,99.90
2022-08-23T01:19:53.441Z,99.90
2022-08-23T01:22:54.954Z,99.90
2022-08-23T01:25:24.027Z,99.90
2022-08-23T01:27:52.387Z,99.90
2022-08-23T01:30:23.214Z,99.90
2022-08-23T01:32:55.353Z,99.90
2022-08-23T01:35:31.080Z,99.90
2022-08-23T01:37:58.583Z,99.90
2022-08-23T01:40:25.826Z,99.90
2022-08-23T01:42:53.061Z,99.90
2022-08-23T01:45:20.117Z,99.90
2022-08-23T01:47:47.551Z,99.90
2022-08-23T01:50:15.136Z,99.90
2022-08-23T01:52:47.018Z,99.90
2022-08-23T01:55:16.634Z,99.90
2022-08-23T01:57:48.380Z,99.90
2022-08-23T02:00:19.708Z,99.90
2022-08-23T02:02:47.065Z,99.90
2022-08-23T02:05:14.440Z,99.90
2022-08-23T02:07:47.053Z,99.90
2022-08-23T02:10:15.077Z,99.90
2022-08-23T02:12:42.226Z,99.90
2022-08-23T02:15:15.757Z,99.90
2022-08-23T02:17:44.490Z,99.90
2022-08-23T02:20:12.593Z,99.90
2022-08-23T02:22:39.744Z,99.90
2022-08-23T02:25:07.612Z,99.90
2022-08-23T02:27:35.228Z,99.90
2022-08-23T02:30:02.398Z,99.90
2022-08-23T02:32:30.371Z,99.90
2022-08-23T02:35:05.357Z,99.90
2022-08-23T02:37:34.739Z,99.90
2022-08-23T02:40:03.407Z,99.90
2022-08-23T02:42:30.995Z,99.90
2022-08-23T02:44:59.239Z,99.90
2022-08-23T02:47:26.365Z,99.90
2022-08-23T02:50:11.757Z,99.90
2022-08-23T02:52:38.820Z,99.90
2022-08-23T02:55:07.474Z,99.90
2022-08-23T02:57:34.456Z,99.90
2022-08-23T03:00:05.760Z,99.90
2022-08-23T03:02:32.862Z,99.90
2022-08-23T03:04:59.937Z,99.90
2022-08-23T03:07:27.088Z,99.90
2022-08-23T03:09:54.064Z,99.90
2022-08-23T03:12:21.121Z,99.90
2022-08-23T03:14:52.156Z,99.90
2022-08-23T03:17:20.396Z,99.90
2022-08-23T03:19:48.233Z,99.90
2022-08-23T03:22:15.636Z,99.90
2022-08-23T03:24:42.558Z,99.90
2022-08-23T03:27:10.502Z,99.90
2022-08-23T03:29:38.440Z,99.90
2022-08-23T03:32:05.375Z,99.90
2022-08-23T03:34:35.885Z,99.90
2022-08-23T03:37:03.065Z,99.90
2022-08-23T03:39:30.126Z,99.90
2022-08-23T03:41:59.888Z,99.90
2022-08-23T03:44:30.479Z,99.90
2022-08-23T03:46:57.575Z,99.90
2022-08-23T03:49:26.011Z,99.90
2022-08-23T03:51:56.036Z,99.90
2022-08-23T03:54:23.038Z,99.90
2022-08-23T03:57:04.979Z,99.90
2022-08-23T03:59:35.895Z,99.90
2022-08-23T04:02:09.546Z,99.90
2022-08-23T04:04:37.060Z,99.90
2022-08-23T04:07:33.098Z,99.90
2022-08-23T04:10:00.177Z,99.90
2022-08-23T04:12:32.738Z,99.90
2022-08-23T04:15:01.637Z,99.90
2022-08-23T04:17:32.455Z,99.90
2022-08-23T04:20:00.350Z,99.90
2022-08-23T04:22:27.349Z,99.90
2022-08-23T04:24:56.114Z,99.90
2022-08-23T04:27:23.342Z,99.90
2022-08-23T04:29:50.417Z,99.90
2022-08-23T04:32:28.577Z,99.90
2022-08-23T04:35:02.036Z,99.90
2022-08-23T04:37:29.096Z,99.90
2022-08-23T04:40:15.594Z,99.90
2022-08-23T04:42:43.200Z,99.90
2022-08-23T04:45:11.683Z,99.90
2022-08-23T04:47:44.377Z,99.90
2022-08-23T04:50:11.689Z,99.90
2022-08-23T04:52:56.534Z,99.90
2022-08-23T04:55:24.015Z,99.90
2022-08-23T04:58:00.764Z,99.90
2022-08-23T05:00:32.271Z,99.90
2022-08-23T05:02:59.564Z,99.90
2022-08-23T05:05:27.641Z,99.90
2022-08-23T05:07:55.258Z,99.90
2022-08-23T05:10:22.514Z,99.90
2022-08-23T05:12:52.749Z,99.90
2022-08-23T05:15:21.567Z,99.90
2022-08-23T05:17:55.616Z,99.90
2022-08-23T05:20:23.033Z,99.90
2022-08-23T05:22:50.488Z,99.90
2022-08-23T05:25:21.381Z,99.90
2022-08-23T05:27:50.050Z,99.90
2022-08-23T05:30:17.158Z,99.90
2022-08-23T05:32:44.475Z,99.90
2022-08-23T05:35:15.364Z,99.90
2022-08-23T05:37:44.752Z,99.90
2022-08-23T05:40:12.111Z,99.90
2022-08-23T05:42:51.150Z,99.90
2022-08-23T05:45:21.199Z,99.90
2022-08-23T05:47:49.868Z,99.90
2022-08-23T05:50:27.925Z,99.90
2022-08-23T05:52:55.004Z,99.90
2022-08-23T05:55:27.660Z,99.90
2022-08-23T05:58:18.907Z,99.90
2022-08-23T06:00:46.572Z,99.90
2022-08-23T06:03:14.009Z,99.90
2022-08-23T06:05:41.836Z,99.90
2022-08-23T06:08:09.232Z,99.90
2022-08-23T06:10:41.603Z,99.90
2022-08-23T06:13:23.237Z,99.90
2022-08-23T06:15:50.228Z,99.90
2022-08-23T06:18:17.435Z,99.90
2022-08-23T06:20:44.529Z,99.90
2022-08-23T06:23:18.004Z,99.90
2022-08-23T06:25:45.617Z,99.90
2022-08-23T06:28:15.167Z,99.90
2022-08-23T06:30:42.888Z,99.90
2022-08-23T06:33:37.039Z,99.90
2022-08-23T06:36:24.713Z,99.90
2022-08-23T06:39:13.439Z,99.90
2022-08-23T06:42:38.324Z,99.90
2022-08-23T06:45:06.485Z,99.90
2022-08-23T06:47:47.430Z,99.90
2022-08-23T06:50:14.522Z,99.90
2022-08-23T06:52:59.876Z,99.90
2022-08-23T06:55:41.651Z,99.90
2022-08-23T06:58:27.462Z,99.90
2022-08-23T07:01:46.566Z,99.90
2022-08-23T07:04:42.405Z,99.90
2022-08-23T07:07:39.789Z,99.90
2022-08-23T07:10:11.844Z,99.90
2022-08-23T07:12:40.941Z,99.90
2022-08-23T07:15:09.560Z,99.90
2022-08-23T07:17:37.295Z,99.90
2022-08-23T07:20:04.732Z,99.90
2022-08-23T07:22:34.155Z,99.90
2022-08-23T07:25:02.012Z,99.90
2022-08-23T07:27:29.733Z,99.90
2022-08-23T07:30:08.470Z,99.90
2022-08-23T07:32:37.610Z,99.90
2022-08-23T07:35:22.322Z,99.90
2022-08-23T07:37:51.822Z,99.90
2022-08-23T07:40:20.764Z,99.90
2022-08-23T07:42:51.285Z,99.90
2022-08-23T07:45:18.730Z,99.90
2022-08-23T07:47:51.676Z,99.90
2022-08-23T07:50:19.998Z,99.90
2022-08-23T07:52:48.268Z,99.90
2022-08-23T07:55:15.406Z,99.90
2022-08-23T07:57:57.010Z,99.90
2022-08-23T08:00:56.305Z,99.90
2022-08-23T08:03:39.807Z,99.90
2022-08-23T08:06:25.936Z,99.90
2022-08-23T08:08:53.475Z,99.90
2022-08-23T08:11:22.345Z,99.90
2022-08-23T08:13:50.877Z,99.90
2022-08-23T08:16:26.486Z,99.90
2022-08-23T08:18:59.365Z,99.90
2022-08-23T08:21:31.910Z,99.90
2022-08-23T08:24:10.427Z,99.90
2022-08-23T08:26:51.945Z,99.90
2022-08-23T08:29:19.024Z,99.90
2022-08-23T08:31:51.329Z,99.90
2022-08-23T08:34:20.707Z,99.90
2022-08-23T08:36:53.893Z,99.90
2022-08-23T08:39:32.263Z,99.90
2022-08-23T08:42:17.762Z,99.90
2022-08-23T08:44:49.748Z,99.90
2022-08-23T08:47:32.660Z,99.90
2022-08-23T08:50:05.755Z,99.90
2022-08-23T08:52:40.773Z,99.90
2022-08-23T08:55:34.632Z,99.90
2022-08-23T08:58:05.014Z,99.90
2022-08-23T09:00:36.459Z,99.90
2022-08-23T09:03:15.841Z,99.90
2022-08-23T09:06:14.969Z,99.90
2022-08-23T09:08:58.365Z,99.90
2022-08-23T09:11:50.879Z,98.50
2022-08-23T09:14:38.453Z,98.90
2022-08-23T09:17:10.875Z,99.90
2022-08-23T09:19:39.196Z,99.60
2022-08-23T09:22:13.441Z,99.50
2022-08-23T09:24:41.570Z,97.90
2022-08-23T09:27:21.760Z,98.70
2022-08-23T09:29:56.164Z,99.30
2022-08-23T09:32:27.893Z,99.30
2022-08-23T09:35:11.330Z,98.20
2022-08-23T09:38:19.936Z,97.70
2022-08-23T09:40:51.159Z,97.40
2022-08-23T09:43:23.585Z,95.80
2022-08-23T09:45:52.822Z,97.70
2022-08-23T09:48:40.464Z,96.60
2022-08-23T09:51:31.192Z,95.70
2022-08-23T09:54:22.769Z,96.50
2022-08-23T09:56:57.278Z,96.70
2022-08-23T09:59:33.623Z,95.10
2022-08-23T10:02:24.218Z,95.10
2022-08-23T10:04:57.081Z,96.40
2022-08-23T10:07:29.130Z,95.20
2022-08-23T10:10:16.583Z,94.70
2022-08-23T10:12:45.476Z,94.30
2022-08-23T10:15:15.117Z,94.90
2022-08-23T10:18:11.014Z,94.60
2022-08-23T10:21:08.079Z,94.90
2022-08-23T10:23:43.203Z,94.50
2022-08-23T10:26:26.783Z,94.50
2022-08-23T10:29:24.706Z,93.40
2022-08-23T10:32:03.164Z,94.20
2022-08-23T10:34:50.667Z,92.90
2022-08-23T10:37:39.448Z,93.40
2022-08-23T10:40:25.941Z,93.40
2022-08-23T10:43:02.041Z,92.60
2022-08-23T10:45:36.513Z,93.20
2022-08-23T10:48:16.128Z,93.10
2022-08-23T10:50:55.690Z,93.30
2022-08-23T10:53:39.245Z,93.00
2022-08-23T10:56:07.839Z,92.30
2022-08-23T10:58:48.979Z,92.00
2022-08-23T11:01:22.675Z,91.60
2022-08-23T11:04:00.044Z,91.20
2022-08-23T11:06:35.808Z,91.70
2022-08-23T11:09:09.474Z,92.00
2022-08-23T11:11:48.880Z,90.40
2022-08-23T11:14:42.461Z,91.20
2022-08-23T11:17:31.568Z,90.30
2022-08-23T11:20:02.058Z,90.60
2022-08-23T11:22:54.247Z,90.90
2022-08-23T11:25:21.391Z,91.30
2022-08-23T11:27:48.533Z,91.80
2022-08-23T11:30:32.406Z,91.40
2022-08-23T11:33:29.060Z,90.80
2022-08-23T11:36:18.242Z,90.40
2022-08-23T11:38:48.198Z,88.40
2022-08-23T11:41:19.436Z,91.60
2022-08-23T11:43:49.876Z,90.20
2022-08-23T11:46:28.293Z,90.50
2022-08-23T11:49:13.030Z,90.10
2022-08-23T11:51:52.433Z,88.70
2022-08-23T11:55:00.856Z,85.00
2022-08-23T11:57:56.952Z,84.30
2022-08-23T12:00:50.948Z,84.70
2022-08-23T12:03:34.842Z,87.00
2022-08-23T12:06:34.522Z,86.20
2022-08-23T12:09:20.998Z,85.90
2022-08-23T12:11:57.112Z,87.30
2022-08-23T12:14:42.313Z,83.60
2022-08-23T12:17:12.304Z,86.80
2022-08-23T12:19:58.593Z,85.20
2022-08-23T12:22:30.957Z,83.10
2022-08-23T12:25:06.604Z,83.70
2022-08-23T12:27:33.668Z,82.00
2022-08-23T12:30:11.700Z,81.50
2022-08-23T12:32:51.643Z,80.70
2022-08-23T12:35:27.933Z,80.80
2022-08-23T12:38:01.535Z,81.60
2022-08-23T12:40:32.217Z,81.40
2022-08-23T12:43:18.215Z,83.30
2022-08-23T12:45:53.544Z,82.90
2022-08-23T12:48:24.309Z,82.90
2022-08-23T12:51:00.348Z,81.10
2022-08-23T12:53:40.277Z,79.20
2022-08-23T12:56:31.837Z,79.30
2022-08-23T12:59:07.468Z,79.10
2022-08-23T13:01:37.466Z,78.50
2022-08-23T13:04:11.733Z,80.20
2022-08-23T13:06:49.533Z,79.00
2022-08-23T13:09:31.542Z,77.90
2022-08-23T13:11:59.663Z,78.30
2022-08-23T13:14:39.826Z,77.40
2022-08-23T13:17:14.645Z,77.40
2022-08-23T13:19:42.100Z,78.40
2022-08-23T13:22:19.061Z,75.80
2022-08-23T13:25:26.950Z,77.30
2022-08-23T13:27:47.800Z,77.60
2022-08-23T13:30:14.721Z,76.20
2022-08-23T13:32:50.914Z,75.10
2022-08-23T13:35:39.348Z,75.90
2022-08-23T13:38:20.603Z,75.60
2022-08-23T13:41:08.763Z,77.40
2022-08-23T13:43:44.937Z,74.10
2022-08-23T13:46:19.442Z,75.10
2022-08-23T13:49:11.802Z,73.90
2022-08-23T13:51:40.232Z,75.90
2022-08-23T13:54:14.507Z,75.10
2022-08-23T13:56:53.342Z,74.10
2022-08-23T13:59:31.273Z,74.10
2022-08-23T14:02:06.408Z,75.50
2022-08-23T14:04:33.444Z,73.70
2022-08-23T14:07:00.443Z,72.70
2022-08-23T14:09:27.503Z,74.90
2022-08-23T14:11:58.691Z,72.30
2022-08-23T14:14:28.231Z,71.80
2022-08-23T14:16:59.662Z,72.40
2022-08-23T14:22:18.944Z,71.90
2022-08-23T14:24:46.281Z,72.10
2022-08-23T14:27:13.323Z,71.10
2022-08-23T14:29:40.328Z,75.60
2022-08-23T14:32:07.334Z,71.10
2022-08-23T14:34:34.264Z,70.70
2022-08-23T14:39:48.341Z,71.50
2022-08-23T14:42:19.689Z,70.80
2022-08-23T14:44:46.729Z,70.40
2022-08-23T14:47:14.102Z,69.30
2022-08-23T14:49:41.247Z,71.90
2022-08-23T14:52:08.244Z,73.80
2022-08-23T14:54:35.807Z,70.00
2022-08-23T14:57:02.865Z,70.60
2022-08-23T14:59:29.854Z,70.20
2022-08-23T15:01:57.297Z,69.90
2022-08-23T15:04:25.360Z,70.90
2022-08-23T15:07:19.355Z,71.00
2022-08-23T15:09:49.027Z,72.80
2022-08-23T15:15:09.274Z,73.70
2022-08-23T15:17:48.960Z,73.20
2022-08-23T15:20:16.436Z,72.80
2022-08-23T15:22:55.133Z,74.10
2022-08-23T15:25:25.478Z,72.50
2022-08-23T15:27:52.728Z,73.30
2022-08-23T15:30:20.658Z,74.70
2022-08-23T15:32:52.787Z,75.90
2022-08-23T15:35:25.967Z,73.50
2022-08-23T15:37:54.503Z,73.30
2022-08-23T15:40:23.388Z,74.40
2022-08-23T15:42:50.547Z,72.80
2022-08-23T15:45:18.245Z,72.90
2022-08-23T15:47:51.543Z,73.90
2022-08-23T15:50:21.757Z,73.70
2022-08-23T15:52:49.022Z,75.20
2022-08-23T15:55:17.073Z,73.40
2022-08-23T15:57:49.890Z,74.70
2022-08-23T16:00:26.943Z,76.00
2022-08-23T16:03:19.435Z,73.70
2022-08-23T16:05:47.744Z,73.00
2022-08-23T16:08:30.690Z,75.00
2022-08-23T16:10:58.275Z,74.80
2022-08-23T16:13:26.173Z,75.20
2022-08-23T16:15:53.286Z,75.70
2022-08-23T16:18:20.555Z,74.60
2022-08-23T16:20:47.612Z,76.00
2022-08-23T16:23:14.695Z,76.20
2022-08-23T16:25:42.891Z,75.80
2022-08-23T16:28:12.532Z,75.10
2022-08-23T16:30:39.954Z,74.70
2022-08-23T16:33:07.143Z,73.90
2022-08-23T16:35:34.091Z,74.70
2022-08-23T16:38:01.264Z,75.40
2022-08-23T16:40:28.292Z,74.80
2022-08-23T16:42:56.351Z,74.00
2022-08-23T16:45:26.319Z,74.40
2022-08-23T16:47:54.023Z,77.60
2022-08-23T16:50:21.142Z,78.80
2022-08-23T16:52:48.197Z,75.50
2022-08-23T16:55:15.363Z,76.60
2022-08-23T16:57:42.415Z,75.40
2022-08-23T17:00:12.946Z,76.60
2022-08-23T17:02:40.938Z,79.00
2022-08-23T17:05:10.814Z,77.40
2022-08-23T17:07:38.783Z,76.30
2022-08-23T17:10:08.269Z,76.90
2022-08-23T17:12:38.872Z,78.80
2022-08-23T17:15:07.412Z,80.90
2022-08-23T17:17:34.483Z,79.60
2022-08-23T17:20:01.815Z,78.60
2022-08-23T17:22:28.768Z,78.10
2022-08-23T17:24:56.389Z,78.50
2022-08-23T17:27:24.593Z,80.10
2022-08-23T17:29:51.747Z,79.80
2022-08-23T17:32:22.065Z,81.10
2022-08-23T17:34:49.101Z,81.20
2022-08-23T17:37:20.370Z,81.50
2022-08-23T17:39:48.902Z,80.40
2022-08-23T17:42:17.482Z,81.40
2022-08-23T17:44:44.782Z,80.90
2022-08-23T17:47:16.335Z,83.90
2022-08-23T17:49:45.584Z,83.30
2022-08-23T17:52:12.880Z,84.60
2022-08-23T17:54:44.301Z,84.10
2022-08-23T17:57:11.908Z,85.80
2022-08-23T17:59:39.261Z,84.30
2022-08-23T18:02:06.861Z,87.10
2022-08-23T18:04:34.095Z,90.00
2022-08-23T18:07:01.964Z,87.20
2022-08-23T18:09:28.940Z,89.30
2022-08-23T18:11:56.234Z,89.30
2022-08-23T18:14:23.835Z,89.20
2022-08-23T18:16:51.654Z,90.00
2022-08-23T18:19:18.686Z,90.30
2022-08-23T18:21:46.590Z,90.60
2022-08-23T18:24:14.124Z,91.00
2022-08-23T18:27:00.636Z,91.10
2022-08-23T18:29:28.862Z,91.60
2022-08-23T18:31:55.909Z,91.90
2022-08-23T18:34:23.024Z,91.50
2022-08-23T18:36:49.928Z,91.60
2022-08-23T18:39:16.975Z,91.90
2022-08-23T18:42:04.013Z,92.00
2022-08-23T18:44:31.428Z,92.20
2022-08-23T18:46:59.818Z,92.30
2022-08-23T18:49:26.919Z,92.70
2022-08-23T18:51:53.981Z,93.20
2022-08-23T18:54:21.027Z,93.30
2022-08-23T18:56:47.975Z,93.10
2022-08-23T18:59:15.033Z,93.80
2022-08-23T19:01:42.986Z,94.30
2022-08-23T19:04:11.163Z,94.60
2022-08-23T19:06:39.079Z,95.60
2022-08-23T19:09:07.816Z,95.40
2022-08-23T19:11:39.367Z,96.10
2022-08-23T19:14:08.690Z,96.80
2022-08-23T19:16:36.946Z,96.10
2022-08-23T19:19:05.113Z,96.60
2022-08-23T19:21:33.408Z,97.00
2022-08-23T19:24:00.885Z,97.30
2022-08-23T19:26:31.825Z,97.60
2022-08-23T19:29:01.038Z,98.20
2022-08-23T19:31:33.853Z,98.80
2022-08-23T19:34:03.772Z,98.30
2022-08-23T19:36:45.724Z,98.40
2022-08-23T19:39:16.359Z,99.30
2022-08-23T19:41:44.059Z,99.90
2022-08-23T19:44:11.978Z,99.90
2022-08-23T19:46:41.886Z,99.90
2022-08-23T19:49:11.127Z,99.90
2022-08-23T19:51:38.835Z,99.90
2022-08-23T19:54:11.432Z,99.90
2022-08-23T19:56:48.311Z,99.90
2022-08-23T19:59:20.175Z,99.90
2022-08-23T20:01:49.212Z,99.90
2022-08-23T20:04:16.847Z,99.90
2022-08-23T20:06:44.134Z,99.90
2022-08-23T20:09:11.711Z,99.90
2022-08-23T20:11:39.732Z,99.90
2022-08-23T20:14:07.832Z,99.90
2022-08-23T20:16:36.156Z,99.90
2022-08-23T20:19:05.842Z,99.90
2022-08-23T20:21:32.963Z,99.90
2022-08-23T20:24:03.788Z,99.90
2022-08-23T20:26:33.906Z,99.90
2022-08-23T20:29:05.476Z,99.90
2022-08-23T20:31:39.263Z,99.90
2022-08-23T20:34:09.330Z,99.90
2022-08-23T20:36:36.609Z,99.90
2022-08-23T20:39:04.076Z,99.90
2022-08-23T20:41:34.180Z,99.90
2022-08-23T20:44:02.534Z,99.90
2022-08-23T20:46:30.160Z,99.90
2022-08-23T20:49:00.090Z,99.90
2022-08-23T20:51:28.905Z,99.90
2022-08-23T20:53:56.931Z,99.90
2022-08-23T20:56:25.076Z,99.90
2022-08-23T20:58:52.547Z,99.90
2022-08-23T21:01:19.670Z,99.90
2022-08-23T21:03:46.997Z,99.90
2022-08-23T21:06:19.916Z,99.90
2022-08-23T21:08:53.548Z,99.90
2022-08-23T21:11:22.837Z,99.90
2022-08-23T21:13:49.886Z,99.90
2022-08-23T21:16:21.468Z,99.90
2022-08-23T21:18:48.733Z,99.90
2022-08-23T21:21:19.710Z,99.90
2022-08-23T21:23:48.644Z,99.90
2022-08-23T21:26:15.980Z,99.90
2022-08-23T21:28:43.329Z,99.90
2022-08-23T21:31:15.959Z,99.90
2022-08-23T21:33:43.500Z,99.90
2022-08-23T21:36:11.793Z,99.90
2022-08-23T21:38:39.105Z,99.90
2022-08-23T21:41:25.893Z,99.90
2022-08-23T21:43:53.915Z,99.90
2022-08-23T21:46:22.980Z,99.90
2022-08-23T21:48:49.987Z,99.90
2022-08-23T21:51:17.085Z,99.90
2022-08-23T21:53:44.041Z,99.90
2022-08-23T21:56:11.008Z,99.90
2022-08-23T21:58:38.036Z,99.90
2022-08-23T22:01:06.420Z,99.90
2022-08-23T22:03:36.209Z,99.90
2022-08-23T22:06:03.949Z,99.90
2022-08-23T22:08:31.147Z,99.90
2022-08-23T22:10:59.490Z,99.90
2022-08-23T22:13:30.837Z,99.90
2022-08-23T22:15:58.049Z,99.90
2022-08-23T22:18:25.103Z,99.90
2022-08-23T22:20:52.135Z,99.90
2022-08-23T22:23:19.154Z,99.90
2022-08-23T22:25:46.316Z,99.90
2022-08-23T22:28:13.450Z,99.90
2022-08-23T22:30:42.678Z,99.90
2022-08-23T22:33:11.076Z,99.90
2022-08-23T22:35:38.234Z,99.90
2022-08-23T22:38:14.132Z,99.90
2022-08-23T22:40:52.610Z,99.90
2022-08-23T22:43:20.783Z,99.90
2022-08-23T22:46:02.165Z,99.90
2022-08-23T22:48:31.358Z,99.90
2022-08-23T22:51:31.303Z,99.90
2022-08-23T22:54:02.424Z,99.90
2022-08-23T22:56:53.066Z,99.90
2022-08-23T22:59:22.864Z,99.90
2022-08-23T23:01:57.909Z,99.90
2022-08-23T23:04:26.550Z,99.90
2022-08-23T23:06:55.243Z,99.90
2022-08-23T23:09:22.271Z,99.90
2022-08-23T23:11:49.257Z,99.90
2022-08-23T23:14:18.262Z,99.90
2022-08-23T23:16:46.145Z,99.90
2022-08-23T23:19:31.560Z,99.90
2022-08-23T23:21:59.181Z,99.90
2022-08-23T23:24:29.758Z,99.90
2022-08-23T23:26:57.910Z,99.90
2022-08-23T23:29:26.768Z,99.90
2022-08-23T23:31:54.070Z,99.90
2022-08-23T23:34:20.967Z,99.90
2022-08-23T23:36:48.347Z,99.90
2022-08-23T23:39:16.374Z,99.90
2022-08-23T23:41:43.502Z,99.90
2022-08-23T23:44:10.686Z,99.90
2022-08-23T23:46:37.607Z,99.90
2022-08-23T23:49:04.544Z,99.90
2022-08-23T23:51:31.659Z,99.90
2022-08-23T23:54:01.094Z,99.90
2022-08-23T23:56:30.127Z,99.90
2022-08-23T23:58:58.500Z,99.90
